Date,TemperatureHighF,TemperatureAvgF,TemperatureLowF,DewpointHighF,DewpointAvgF,DewpointLowF,HumidityHigh,HumidityAvg,HumidityLow,PressureMaxIn,PressureMinIn,WindSpeedMaxMPH,WindSpeedAvgMPH,GustSpeedMaxMPH,PrecipitationSumIn
2013-1-1,38.1,32.3,23.0,28.0,19.4,5.5,74,59,46,29.83,29.67,15,7,17,0.00
2013-1-2,26.1,20.7,14.2,15.8,10.1,4.8,72,63,49,30.00,29.83,11,4,15,0.00
2013-1-3,24.8,21.2,8.4,14.6,10.5,-3.9,69,63,54,30.03,29.91,4,2,7,0.00
2013-1-4,36.1,31.6,29.1,23.2,21.6,19.9,69,66,59,29.78,29.73,10,4,14,0.00
2013-1-5,43.7,35.8,25.7,27.3,23.7,19.8,80,62,47,30.13,29.97,27,5,27,0.00
2013-1-6,52.5,38.5,27.7,35.0,29.8,26.5,95,72,48,29.96,29.81,9,3,10,0.00
2013-1-7,38.1,29.3,23.4,30.0,22.4,16.8,92,76,60,30.26,30.01,13,2,14,0.00
2013-1-8,45.0,36.3,27.9,31.4,28.7,25.1,90,75,53,30.26,30.18,10,3,11,0.00
2013-1-9,43.0,41.7,40.5,38.3,37.6,36.6,88,85,79,29.99,29.94,13,6,19,0.00
2013-1-10,45.1,38.8,32.7,26.0,25.3,24.1,72,58,44,30.41,30.20,18,5,18,0.00
2013-1-11,30.4,28.4,26.4,27.0,25.7,24.7,93,90,85,30.36,30.33,3,2,4,0.00
2013-1-12,44.1,41.0,36.0,43.8,40.7,35.7,99,99,99,30.05,29.99,4,1,5,0.04
2013-1-13,49.6,44.8,41.0,49.4,44.5,40.7,99,99,99,30.02,29.92,8,3,8,0.00
2013-1-14,47.5,42.0,36.5,47.2,33.3,29.9,99,71,63,30.14,29.75,14,8,19,0.00
2013-1-15,36.9,34.5,32.4,30.8,28.9,28.0,88,80,73,30.19,30.09,5,3,7,0.01
2013-1-16,32.9,32.0,29.7,32.7,31.8,29.4,99,99,99,29.94,29.68,0,0,0,0.00
2013-1-17,36.7,31.9,27.5,30.3,23.2,15.8,99,70,60,29.97,29.78,11,5,14,0.24
2013-1-18,27.5,21.7,19.6,16.4,7.6,4.1,63,54,40,30.33,29.91,11,3,11,0.00
2013-1-19,50.0,39.6,31.6,35.8,29.8,23.3,89,68,51,30.09,29.82,18,7,22,0.00
2013-1-20,54.5,43.5,30.6,35.0,26.2,12.4,87,52,31,29.83,29.49,21,10,25,0.00
2013-1-21,33.3,26.3,20.3,24.2,17.5,11.6,99,72,43,29.96,29.72,9,2,10,0.00
2013-1-22,21.6,17.3,12.7,7.4,-0.1,-5.2,63,46,35,29.97,29.75,16,8,19,0.00
2013-1-23,11.7,7.9,5.2,-1.6,-4.1,-6.1,65,57,48,30.05,30.02,8,3,9,0.00
2013-1-24,17.1,11.0,4.1,-1.0,-5.8,-9.7,64,47,30,30.16,30.01,24,8,24,0.00
2013-1-25,21.2,19.2,8.4,13.5,5.2,-0.1,83,55,39,30.21,29.93,4,2,5,0.00
2013-1-26,26.2,19.8,9.9,10.9,5.7,1.2,90,55,39,30.15,29.93,18,8,23,0.00
2013-1-27,35.1,26.0,10.4,11.3,2.4,-2.6,85,39,23,30.35,30.26,16,5,17,0.00
2013-1-28,32.7,28.3,19.8,32.5,23.9,7.8,99,85,45,30.28,29.86,4,1,5,0.00
2013-1-29,33.6,32.0,27.5,33.4,31.7,27.3,99,99,99,30.02,29.95,2,1,3,0.17
2013-1-30,54.1,51.5,33.6,53.9,51.2,33.4,99,99,99,29.81,29.39,17,5,17,0.04
2013-1-31,56.8,43.9,32.0,56.6,35.9,18.6,99,75,42,29.49,28.88,25,12,32,0.79
2013-2-1,26.6,25.2,23.7,14.9,9.8,6.0,65,52,45,29.91,29.63,20,10,24,0.00
2013-2-2,39.7,27.9,14.5,19.1,12.2,8.8,84,53,31,30.12,29.92,18,6,24,0.00
2013-2-3,34.0,27.0,17.8,24.7,19.0,15.6,99,73,57,29.83,29.62,8,3,9,0.00
2013-2-4,28.8,24.7,21.2,18.1,10.3,6.7,86,55,41,29.81,29.69,14,5,16,0.00
2013-2-5,28.4,25.8,23.5,25.3,23.5,16.8,99,91,74,29.82,29.78,4,0,4,0.00
2013-2-6,32.5,29.5,26.6,26.6,11.6,3.8,99,49,36,30.18,29.83,12,6,14,0.02
2013-2-7,31.8,28.7,25.5,14.1,10.8,8.5,60,47,39,30.32,30.29,8,2,8,0.00
2013-2-8,29.7,28.3,21.7,29.4,27.6,21.5,99,97,83,30.09,29.47,21,7,24,0.00
2013-2-9,30.2,24.3,20.5,20.6,8.3,-1.6,99,53,28,30.04,29.65,27,15,32,0.00
2013-2-10,53.2,28.8,11.7,16.4,8.0,-4.1,69,44,15,30.31,30.21,8,4,8,0.00
2013-2-11,43.3,38.1,28.4,43.1,37.7,26.1,99,99,91,30.01,29.50,8,2,13,0.30
2013-2-12,50.7,41.3,34.9,33.1,29.3,25.6,82,63,46,29.80,29.61,17,7,18,0.01
2013-2-13,55.8,39.9,25.3,31.2,25.5,20.3,84,58,34,29.77,29.57,8,2,9,0.00
2013-2-14,40.5,32.0,27.9,31.5,28.8,27.1,99,89,61,29.78,29.67,5,1,6,0.01
2013-2-15,59.9,43.8,30.9,40.9,36.3,30.7,99,77,47,29.86,29.78,11,4,14,0.00
2013-2-16,44.4,34.6,29.8,31.9,22.6,16.1,99,64,40,29.83,29.65,13,5,14,0.04
2013-2-17,28.4,22.1,15.8,3.7,-1.1,-6.3,45,36,24,29.70,29.42,30,16,35,0.00
2013-2-18,35.1,25.8,14.7,0.6,-2.6,-5.3,47,30,19,30.02,29.94,31,13,35,0.00
2013-2-19,49.1,40.6,24.8,41.1,34.3,13.3,99,80,54,29.94,29.50,17,4,20,0.20
2013-2-20,31.8,28.3,25.3,23.8,10.8,5.1,74,48,39,29.71,29.58,19,8,23,0.00
2013-2-21,26.8,23.1,21.7,13.6,11.7,9.5,67,61,51,30.09,29.76,18,8,18,0.00
2013-2-22,39.2,34.4,19.6,26.7,24.2,14.6,81,66,48,30.21,30.16,8,3,11,0.00
2013-2-23,37.9,35.8,32.9,37.7,34.7,29.2,99,96,86,30.07,29.91,6,2,7,0.11
2013-2-24,41.5,38.4,34.5,40.4,37.9,34.3,99,98,90,29.63,29.58,15,6,15,0.02
2013-2-25,38.5,35.8,32.4,29.6,28.8,27.5,84,76,70,30.09,30.07,2,1,4,0.00
2013-2-26,36.5,34.3,30.2,30.0,28.2,26.6,92,79,68,30.18,29.98,11,3,11,0.00
2013-2-27,41.5,39.8,37.2,41.3,39.6,37.0,99,99,99,29.49,29.43,8,3,8,0.93
2013-3-1,43.3,38.0,35.1,32.1,30.6,28.5,84,75,57,29.60,29.52,15,8,15,0.00
2013-3-2,39.2,35.5,31.8,27.4,26.5,25.6,82,70,61,29.61,29.52,14,7,15,0.00
2013-3-3,34.9,31.0,27.1,26.0,22.4,19.0,81,70,59,29.56,29.49,15,9,18,0.00
2013-3-5,43.0,40.6,29.8,29.4,28.4,23.4,77,62,58,29.89,29.80,8,2,13,0.00
2013-3-6,36.5,35.9,35.4,34.7,32.4,31.1,93,87,83,29.86,29.85,14,9,18,0.00
2013-3-7,34.5,33.3,32.7,34.3,33.1,32.5,99,99,99,29.91,29.88,11,6,12,0.01
2013-3-8,41.2,35.7,30.9,33.4,31.2,27.9,99,85,60,30.02,29.83,17,4,19,0.15
2013-3-9,62.1,49.8,32.7,25.8,22.2,12.5,67,37,16,30.11,30.05,11,5,13,0.00
2013-3-10,62.2,45.1,26.6,39.5,34.1,26.1,98,68,40,30.27,30.16,11,4,11,0.00
2013-3-11,55.4,48.5,45.1,45.9,44.8,43.7,99,87,66,30.03,30.01,14,4,16,0.00
2013-3-12,52.7,51.9,45.3,52.4,51.6,45.1,99,99,99,29.65,29.56,17,7,18,1.19
2013-3-14,33.8,29.9,28.4,22.8,15.3,13.6,71,54,44,29.75,29.67,18,11,24,0.00
2013-3-15,40.6,33.6,25.0,31.7,23.5,10.6,82,67,52,29.78,29.56,14,6,18,0.00
2013-3-16,36.5,33.6,32.5,29.9,28.7,26.8,90,82,69,29.72,29.65,7,3,10,0.00
2013-3-17,37.0,32.5,24.6,14.8,8.8,3.9,55,37,25,30.14,29.91,21,9,27,0.00
2013-3-18,21.0,21.0,20.8,4.9,4.9,4.8,49,49,49,30.28,30.27,3,3,4,0.00
2013-3-19,36.9,33.9,30.0,36.6,33.7,29.8,99,99,99,29.72,29.52,11,5,14,0.24
2013-3-20,44.2,38.0,26.1,21.3,17.6,15.4,80,44,35,29.68,29.62,14,4,15,0.01
2013-3-21,37.4,34.1,28.6,25.3,19.7,10.5,78,56,40,29.65,29.47,14,4,14,0.00
2013-3-22,43.0,33.8,23.7,23.0,18.7,11.7,65,54,40,29.68,29.55,17,6,18,0.00
2013-3-23,45.0,38.0,30.0,23.9,19.7,15.7,72,49,32,29.74,29.60,24,10,26,0.00
2013-3-24,48.9,42.3,30.6,25.9,23.1,20.5,73,47,37,29.77,29.58,14,6,19,0.00
2013-3-25,41.9,39.7,31.8,28.3,26.8,23.8,72,60,56,29.53,29.34,16,7,17,0.00
2013-3-26,50.0,42.4,36.7,29.7,22.9,17.9,69,47,33,29.69,29.51,14,5,16,0.00
2013-3-27,49.1,45.7,44.1,27.6,26.5,23.3,49,47,36,29.78,29.72,13,7,17,0.00
2013-3-28,52.5,46.6,38.1,34.1,32.3,30.2,73,58,45,29.92,29.79,14,7,15,0.00
2013-3-29,56.1,47.9,39.0,31.5,29.8,26.7,70,50,37,29.96,29.88,13,7,17,0.00
2013-3-30,60.3,51.5,37.2,32.1,23.8,17.9,75,36,21,29.99,29.91,17,6,21,0.00
2013-3-31,60.1,50.1,30.6,42.1,32.3,22.6,83,52,31,29.97,29.64,16,6,22,0.00
2013-4-1,54.3,43.0,38.1,48.0,34.1,17.1,99,72,42,29.69,29.46,27,10,30,0.04
2013-4-2,39.2,35.0,31.3,16.8,11.9,8.3,54,38,28,29.87,29.80,20,8,20,0.00
2013-4-3,47.1,44.4,40.3,14.6,12.8,11.2,31,27,24,29.98,29.90,21,13,24,0.00
2013-4-4,58.5,44.2,37.9,32.9,27.5,22.9,82,54,28,30.01,29.94,11,6,17,0.00
2013-4-5,60.1,50.4,43.3,27.0,21.7,18.3,40,32,27,29.77,29.57,21,12,25,0.00
2013-4-6,54.1,43.0,32.0,13.8,6.9,2.7,43,23,15,30.18,30.04,20,6,21,0.00
2013-4-7,61.9,50.7,36.3,45.2,37.8,30.1,95,64,42,30.16,29.88,21,8,24,0.00
2013-4-8,74.1,63.8,40.6,45.6,42.2,39.9,99,48,31,29.93,29.88,7,3,11,0.00
2013-4-9,76.1,68.6,48.9,49.1,45.8,42.7,99,45,37,29.87,29.79,13,4,14,0.00
2013-4-10,55.8,51.3,48.7,55.0,51.0,48.5,99,99,94,29.82,29.72,6,3,11,0.31
2013-4-11,56.5,51.3,47.7,49.8,40.7,28.9,99,70,43,29.95,29.78,8,5,13,0.00
2013-4-12,43.0,40.3,37.4,38.8,37.0,35.4,99,88,75,29.93,29.63,12,6,15,0.32
2013-4-13,60.8,48.6,36.9,42.9,38.5,36.3,99,70,46,29.80,29.70,8,4,13,0.05
2013-4-14,54.7,48.2,40.8,40.9,31.9,25.9,98,54,40,30.09,29.86,17,7,17,0.00
2013-4-15,66.2,54.1,36.0,38.6,34.0,29.5,77,48,32,30.25,30.16,12,4,14,0.00
2013-4-16,71.8,57.8,41.4,57.6,52.2,40.8,99,84,52,30.25,29.96,17,7,21,0.02
2013-4-17,71.1,61.7,51.1,41.9,37.2,30.8,69,42,30,30.17,29.97,15,6,15,0.00
2013-4-18,66.4,57.3,43.2,47.9,40.7,34.3,90,57,34,30.26,30.03,16,6,16,0.00
2013-4-19,73.8,64.9,56.3,68.4,63.8,56.0,99,96,81,29.86,29.57,21,9,25,0.00
2013-4-20,61.7,54.2,43.2,47.8,35.1,27.5,99,52,31,30.07,29.71,18,8,18,0.24
2013-4-21,60.6,48.1,34.5,26.5,21.0,16.2,49,35,26,30.50,30.36,14,6,16,0.00
2013-4-22,62.8,55.2,34.0,35.6,32.4,26.9,93,45,28,30.54,30.39,11,5,15,0.00
2013-4-23,44.8,41.4,37.9,41.4,37.6,32.5,92,86,80,30.29,30.05,14,6,14,0.00
2013-4-24,78.1,57.3,43.7,53.8,49.1,43.4,99,78,42,29.91,29.70,13,6,18,0.00
2013-4-25,54.7,49.8,46.9,37.7,35.7,34.1,69,59,49,30.02,29.90,14,10,17,0.01
2013-4-26,74.7,58.8,36.7,39.6,32.7,26.5,79,39,23,30.28,30.17,13,5,13,0.00
2013-4-27,66.4,55.0,42.1,40.2,35.7,30.8,64,49,34,30.28,30.22,9,4,11,0.00
2013-4-28,73.9,59.5,43.2,46.6,39.0,32.1,99,51,31,30.19,30.09,18,5,18,0.00
2013-4-29,58.5,52.8,49.1,51.3,48.1,45.7,89,84,72,30.13,30.11,5,2,9,0.00
2013-4-30,76.8,66.8,45.1,42.7,31.1,27.9,91,28,19,30.20,30.14,11,5,13,0.00
2013-5-1,78.1,65.5,52.0,50.3,44.3,39.8,66,47,37,30.37,30.27,14,5,14,0.00
2013-5-2,62.6,51.4,41.7,46.0,43.9,41.5,99,78,52,30.32,30.30,4,2,4,0.00
2013-5-3,73.9,61.6,48.0,48.1,45.2,37.2,82,57,34,30.35,30.21,11,4,11,0.00
2013-5-4,77.9,63.2,46.8,50.9,46.2,40.2,99,57,29,30.20,30.09,12,4,16,0.00
2013-5-5,72.9,56.4,39.6,44.4,42.0,39.3,99,62,35,30.18,30.08,8,4,14,0.00
2013-5-7,79.3,72.6,64.8,63.0,60.7,59.5,83,67,56,30.01,29.95,10,4,12,0.00
2013-5-8,63.9,59.9,56.7,63.6,59.7,56.4,99,99,99,30.02,29.90,6,2,6,0.25
2013-5-9,59.4,56.4,54.9,59.1,56.1,54.6,99,99,99,29.86,29.83,3,1,3,0.01
2013-5-10,81.3,69.2,52.0,65.2,59.7,51.7,99,74,50,29.85,29.79,11,3,11,0.00
2013-5-11,66.7,63.0,58.6,66.5,62.7,58.4,99,99,99,29.69,29.58,11,4,14,0.32
2013-5-12,74.3,62.4,54.1,59.8,48.6,29.1,99,64,34,29.70,29.49,16,4,16,0.04
2013-5-13,54.1,49.8,44.6,33.3,31.5,29.9,63,49,41,29.94,29.84,11,5,13,0.00
2013-5-14,56.5,48.4,40.8,35.0,33.1,30.4,72,56,37,29.95,29.88,13,2,13,0.00
2013-5-15,62.2,52.3,43.9,49.5,46.2,41.1,90,80,51,29.90,29.84,8,3,10,0.00
2013-5-16,84.0,81.6,79.9,50.2,46.6,44.1,32,29,28,29.57,29.54,11,5,14,0.00
2013-5-17,69.8,60.4,55.4,44.4,42.6,39.9,66,53,36,30.01,29.85,9,5,9,0.00
2013-5-19,60.3,57.4,55.4,60.0,57.0,55.1,99,98,96,30.22,30.10,6,2,11,0.19
2013-5-20,85.8,72.6,56.8,73.1,67.0,56.6,99,84,63,29.96,29.80,8,2,11,0.01
2013-5-21,87.6,75.7,63.5,77.2,72.2,63.2,99,90,70,29.82,29.68,10,3,14,0.00
2013-5-22,78.6,67.8,55.6,75.0,66.7,55.3,99,97,88,29.81,29.70,10,3,11,0.18
2013-5-23,69.3,66.3,64.6,69.0,66.0,64.3,99,99,99,29.77,29.69,14,3,14,1.24
2013-5-24,64.6,54.7,47.1,64.3,54.4,46.9,99,99,99,29.75,29.55,15,5,15,0.80
2013-5-25,46.9,45.2,44.2,46.7,44.8,44.0,99,99,95,29.75,29.68,19,8,21,0.46
2013-5-26,59.9,56.7,48.6,46.3,44.1,42.1,88,63,53,29.83,29.75,17,12,19,0.00
2013-5-27,74.1,66.4,48.6,48.6,45.4,42.6,84,48,33,30.06,29.96,10,3,11,0.00
2013-5-28,70.5,59.6,47.5,61.1,57.5,47.2,99,94,53,30.09,30.02,8,2,10,0.05
2013-5-30,64.6,64.4,64.2,64.3,64.1,64.0,99,99,99,29.96,29.95,3,2,3,0.00
2013-5-31,95.5,85.2,67.1,79.6,74.5,66.8,99,71,56,29.99,29.85,12,4,12,0.00
2013-6-1,97.3,85.0,72.9,80.7,76.4,71.7,96,76,55,29.88,29.78,11,4,13,0.00
2013-6-2,91.8,80.5,68.7,79.6,75.2,68.5,99,85,66,29.75,29.63,13,5,16,0.00
2013-6-3,79.3,70.9,64.0,76.5,68.9,62.8,99,93,83,29.73,29.66,7,2,7,0.51
2013-6-4,59.9,56.7,53.6,48.9,47.2,45.5,76,71,65,29.85,29.83,10,5,11,0.00
2013-6-5,75.7,66.2,52.7,57.8,54.2,49.3,91,67,52,30.08,29.98,10,3,11,0.00
2013-6-6,64.4,58.0,53.4,63.6,57.7,53.2,99,99,96,30.05,30.03,3,1,4,0.00
2013-6-7,60.6,57.9,55.8,60.4,57.7,55.5,99,99,99,29.88,29.65,4,2,6,2.52
2013-6-8,78.8,69.8,53.4,71.7,66.5,53.2,99,90,75,29.88,29.55,12,3,12,0.32
2013-6-9,82.6,74.4,61.7,66.2,64.2,61.4,99,72,55,30.03,29.97,5,2,8,0.00
2013-6-10,67.8,63.1,59.5,67.6,62.9,59.3,99,99,99,30.06,29.85,8,2,11,0.45
2013-6-11,72.0,65.1,59.0,71.7,64.9,58.7,99,99,99,29.62,29.43,6,2,11,0.47
2013-6-12,69.1,63.9,62.1,60.3,58.6,57.8,89,83,68,29.72,29.57,13,5,17,0.00
2013-6-13,57.7,56.0,53.4,57.5,55.8,53.2,99,99,99,29.70,29.48,7,2,9,1.26
2013-6-14,73.8,63.6,51.4,64.8,59.2,51.2,99,87,57,29.69,29.52,11,3,11,0.54
2013-6-15,75.9,68.2,62.6,61.4,59.2,54.3,91,74,54,29.85,29.78,9,2,10,0.00
2013-6-16,81.3,74.4,61.5,70.1,65.5,61.3,99,75,57,29.83,29.62,8,3,11,0.00
2013-6-17,85.6,73.1,65.1,72.1,67.8,63.6,99,85,62,29.78,29.67,22,3,24,0.00
2013-6-18,72.1,64.2,60.4,71.1,63.9,60.2,99,99,95,29.80,29.75,4,2,5,0.22
2013-6-19,66.4,60.1,54.5,60.0,55.8,52.0,99,87,60,30.01,29.82,7,2,7,0.01
2013-6-20,80.6,69.2,51.8,66.3,59.6,51.5,99,74,53,30.14,30.08,8,2,11,0.00
2013-6-21,77.7,69.3,62.2,66.7,62.8,59.0,90,80,69,30.15,30.10,6,3,10,0.00
2013-6-22,84.7,74.6,64.4,69.2,65.6,62.3,93,74,58,30.12,30.00,8,3,14,0.00
2013-6-23,95.0,81.5,69.4,77.7,74.3,68.6,97,80,51,30.04,29.97,12,4,12,0.00
2013-6-24,88.0,74.5,70.0,79.9,72.6,69.7,99,94,72,29.89,29.80,10,3,10,0.02
2013-6-25,90.0,79.1,73.9,80.1,76.3,73.7,99,92,69,29.68,29.64,13,2,13,0.05
2013-6-26,85.5,77.5,72.0,80.1,76.7,71.7,99,97,80,29.72,29.66,9,2,10,0.00
2013-6-27,80.8,73.3,68.5,80.5,73.1,68.3,99,99,99,29.70,29.64,6,1,6,0.01
2013-7-3,88.3,81.5,74.1,85.5,80.5,73.9,99,97,87,30.10,30.04,9,4,14,0.00
2013-7-4,95.2,81.9,73.4,86.4,79.9,73.2,99,94,74,30.10,30.00,11,3,12,0.00
2013-7-5,97.5,83.4,73.4,87.0,80.2,73.2,99,91,70,30.07,29.94,12,3,13,0.00
2013-7-6,91.4,85.8,78.1,85.2,82.6,77.8,99,90,76,29.99,29.88,7,2,9,0.00
2013-7-7,98.6,88.9,78.4,88.7,84.4,78.2,99,87,71,29.91,29.79,8,2,12,0.00
2013-7-8,92.3,85.1,74.8,81.3,79.3,74.6,99,83,69,29.87,29.82,10,3,11,0.00
2013-7-9,85.5,78.7,72.0,83.1,77.9,71.7,99,97,90,29.96,29.88,7,2,13,0.00
2013-7-10,87.6,80.5,74.5,86.1,80.2,74.2,99,99,93,29.85,29.67,11,3,12,0.04
2013-7-11,80.8,76.4,72.0,80.5,75.8,71.7,99,98,89,29.80,29.70,4,1,5,0.18
2013-7-12,82.2,75.1,69.3,76.5,71.6,64.2,99,89,77,30.04,29.91,10,3,10,0.00
2013-7-13,72.3,68.1,64.8,72.1,67.8,64.5,99,99,99,30.16,30.11,3,2,4,0.07
2013-7-14,94.5,83.9,75.2,85.8,81.9,75.0,99,94,75,30.20,30.09,6,2,7,0.00
2013-7-15,92.5,84.8,75.4,84.5,81.0,75.1,99,89,71,30.10,29.99,9,3,10,0.01
2013-7-21,78.1,74.9,73.0,73.6,72.6,71.8,98,92,83,29.85,29.81,2,0,3,0.02
2013-7-22,85.3,76.6,68.7,81.9,76.2,68.5,99,98,89,29.86,29.74,6,2,6,0.02
2013-7-23,92.1,79.9,73.0,85.1,78.7,72.8,99,96,78,29.54,29.43,9,2,11,0.44
2013-7-24,81.0,76.7,68.7,79.3,73.4,64.4,99,90,78,29.78,29.51,8,4,9,0.00
2013-7-25,64.2,61.0,58.3,64.0,60.4,55.7,99,98,90,29.97,29.88,4,2,8,0.06
2013-7-26,77.4,69.2,61.7,76.6,68.8,61.4,99,99,92,29.92,29.85,6,2,7,0.24
2013-7-27,88.3,78.4,65.3,76.3,72.8,65.0,99,84,62,29.93,29.85,11,3,11,0.00
2013-7-28,82.4,74.9,67.5,77.6,73.3,67.2,99,95,80,29.89,29.81,5,2,8,0.00
2013-7-29,79.5,74.7,70.7,77.7,74.3,70.4,99,99,94,29.90,29.87,4,2,5,0.00
2013-7-30,80.1,73.0,64.0,69.9,66.8,63.8,99,81,65,30.02,29.97,10,3,10,0.00
2013-7-31,89.1,77.0,63.9,71.4,69.1,63.6,99,78,55,30.03,29.92,5,2,6,0.00
2013-8-1,80.4,72.7,65.1,76.9,71.7,64.9,99,96,80,29.87,29.79,8,2,12,0.06
2013-8-2,86.4,78.0,68.4,75.3,71.4,68.1,99,81,64,29.75,29.70,8,3,14,0.19
2013-8-3,82.2,73.4,68.0,75.5,71.5,67.7,99,94,77,29.75,29.68,9,2,10,0.00
2013-8-4,79.5,72.5,60.4,68.8,66.3,60.2,99,82,65,29.74,29.69,13,4,13,0.00
2013-8-5,77.2,69.9,61.2,61.3,58.0,53.2,99,67,50,29.92,29.84,13,4,14,0.00
2013-8-6,86.2,74.0,55.9,68.6,64.1,55.7,99,73,54,30.00,29.96,11,3,11,0.00
2013-8-7,83.8,73.3,60.3,71.2,68.7,60.0,99,87,61,30.06,29.96,10,4,11,0.00
2013-8-8,83.3,73.7,69.4,82.4,73.4,69.2,99,99,95,29.97,29.88,9,3,14,0.08
2013-8-9,78.1,74.5,72.9,77.8,74.2,72.6,99,99,99,29.89,29.65,10,3,14,1.20
2013-8-10,78.4,73.2,68.5,73.7,71.4,68.3,99,94,82,29.84,29.81,6,3,11,0.00
2013-8-11,84.7,72.4,59.5,69.4,65.2,59.3,99,80,57,29.99,29.90,8,2,12,0.00
2013-8-12,82.2,74.3,64.6,73.0,69.8,64.3,99,86,67,29.91,29.80,7,2,8,0.00
2013-8-13,77.0,72.6,68.5,76.0,72.3,68.3,99,99,94,29.72,29.56,8,2,8,0.07
2013-8-14,73.0,67.5,59.4,62.4,60.2,57.9,99,78,66,29.85,29.67,15,6,16,0.00
2013-8-15,67.5,62.7,56.7,63.8,61.2,56.4,99,95,88,30.01,29.95,4,1,4,0.00
2013-8-16,85.3,70.3,55.4,68.7,63.8,55.1,99,82,52,30.04,30.02,9,2,11,0.00
2013-8-17,88.5,72.6,59.2,70.2,65.6,58.9,99,81,44,30.16,30.10,6,1,6,0.00
2013-8-18,72.0,66.9,61.5,71.7,66.6,61.3,99,99,99,30.15,30.00,3,1,4,0.00
2013-8-19,79.3,75.0,63.9,73.1,70.8,63.6,99,87,73,29.96,29.87,6,2,8,0.00
2013-8-20,88.0,77.9,64.6,72.9,70.7,64.3,99,80,59,30.00,29.93,9,2,10,0.00
2013-8-21,91.2,79.9,64.4,78.3,73.0,64.1,99,81,58,30.05,29.91,6,2,7,0.00
2013-8-22,79.3,74.3,70.7,78.6,74.0,70.4,99,99,96,29.93,29.83,8,2,8,0.31
2013-8-23,81.5,74.1,66.0,71.9,67.5,62.7,99,81,59,30.00,29.79,8,2,9,0.00
2013-8-24,80.6,70.7,58.6,64.1,61.8,58.4,99,75,56,30.22,30.14,9,2,9,0.00
2013-8-25,93.0,69.2,54.3,68.0,61.4,54.1,99,80,41,30.27,30.08,8,2,8,0.00
2013-8-26,71.1,69.2,66.7,70.8,68.4,65.6,99,97,91,30.01,29.78,7,2,8,0.32
2013-8-27,83.1,75.3,68.4,80.6,74.6,68.1,99,98,88,29.76,29.70,4,2,7,0.31
2013-8-28,89.4,73.3,66.4,80.9,71.8,66.1,99,96,69,29.78,29.69,9,2,13,0.01
2013-8-29,70.7,69.5,68.9,70.4,69.2,68.6,99,99,99,29.90,29.84,5,2,7,0.00
2013-8-30,67.5,66.2,65.5,67.2,65.9,65.2,99,99,99,29.88,29.86,4,2,7,0.00
2013-8-31,81.9,77.0,72.5,81.6,76.8,72.2,99,99,99,29.72,29.66,10,3,10,0.00
2013-9-1,83.3,78.6,72.0,83.1,78.4,71.7,99,99,99,29.74,29.69,8,3,9,0.01
2013-9-2,80.2,74.7,68.7,80.0,74.5,68.5,99,99,99,29.70,29.55,8,1,9,1.09
2013-9-3,75.4,69.3,63.5,74.8,69.0,63.2,99,99,93,29.74,29.63,7,1,7,0.01
2013-9-4,66.9,62.7,59.4,66.7,62.5,59.1,99,99,98,29.83,29.73,5,1,5,0.00
2013-9-5,70.5,70.3,70.0,55.0,54.2,53.4,59,57,55,29.90,29.88,7,4,10,0.00
2013-9-7,85.5,67.1,51.6,64.7,57.9,51.4,99,75,47,29.96,29.86,8,3,8,0.00
2013-9-8,72.7,66.4,59.2,70.3,59.0,50.9,98,78,53,29.94,29.67,9,3,13,0.00
2013-9-9,72.1,59.8,46.0,58.9,54.0,45.8,99,83,59,30.12,30.03,7,2,10,0.00
2013-9-10,66.6,65.3,64.6,66.3,65.1,64.3,99,99,99,30.02,29.99,6,3,7,0.00
2013-9-11,94.6,81.9,72.0,87.5,80.2,71.7,99,95,78,29.97,29.84,13,3,13,0.00
2013-9-12,71.8,71.8,71.8,71.5,71.5,71.5,99,99,99,29.80,29.80,2,2,4,0.00
2013-9-13,76.1,66.7,60.1,71.0,64.5,59.8,99,93,82,29.67,29.50,14,6,14,0.04
2013-9-14,64.6,59.8,53.2,57.8,56.4,53.0,99,89,75,29.91,29.77,11,4,11,0.00
2013-9-15,73.4,58.8,47.3,59.3,54.1,47.0,99,86,59,30.06,30.03,5,2,6,0.00
2013-9-16,57.6,56.9,56.3,57.3,56.6,56.0,99,99,99,29.94,29.91,3,1,3,0.04
2013-9-17,46.0,43.1,41.9,43.5,42.4,41.6,99,97,90,30.27,30.23,4,2,4,0.00
2013-9-18,78.3,58.2,42.1,57.6,51.3,41.8,99,81,44,30.20,30.04,6,1,8,0.00
2013-9-19,78.8,66.4,50.4,61.4,57.9,50.1,99,76,50,30.03,29.92,5,2,9,0.08
2013-9-20,83.5,76.8,71.1,64.2,62.5,59.2,78,62,52,29.88,29.86,8,4,8,0.00
2013-9-21,70.7,64.7,53.1,70.4,64.5,52.8,99,99,99,29.86,29.60,9,4,11,0.04
2013-9-22,69.8,61.6,54.1,62.9,56.1,46.8,99,83,66,29.74,29.56,11,5,12,0.65
2013-9-23,51.4,48.2,46.6,48.1,46.6,45.8,98,94,87,29.84,29.82,6,4,8,0.00
2013-9-24,68.5,54.7,42.1,50.5,47.2,41.8,99,78,45,29.89,29.72,8,2,11,0.00
2013-9-26,58.1,55.9,54.0,57.8,55.4,53.7,99,98,90,29.98,29.87,4,1,4,0.00
2013-9-27,54.5,51.2,49.5,54.2,50.9,49.2,99,99,99,30.10,30.05,3,1,3,0.00
2013-9-28,79.9,63.9,48.2,63.9,59.1,47.9,99,86,57,30.21,30.12,6,1,6,0.00
2013-9-29,79.9,63.6,48.9,65.5,57.5,48.7,99,83,50,30.10,29.96,5,1,9,0.00
2013-9-30,62.6,52.4,45.3,60.9,52.1,45.1,99,99,94,29.97,29.85,4,1,4,0.00
2013-10-2,80.1,73.1,65.3,70.8,68.8,65.0,99,87,67,29.84,29.75,6,2,7,0.00
2013-10-3,59.5,55.3,52.9,59.3,55.0,52.6,99,99,99,29.98,29.93,2,1,2,0.00
2013-10-5,67.3,63.1,59.4,67.0,62.8,59.1,99,99,99,29.98,29.94,3,1,3,0.01
2013-10-6,62.6,59.3,57.2,62.3,59.0,56.9,99,99,99,30.05,29.98,5,1,7,0.59
2013-10-7,75.0,66.3,57.6,74.8,66.0,57.3,99,99,99,29.87,29.65,14,4,21,0.35
2013-10-8,63.7,55.6,49.3,54.2,50.5,48.7,99,84,61,30.16,29.99,8,1,8,0.00
2013-10-11,70.7,67.1,51.4,65.7,64.2,51.2,99,91,82,29.97,29.92,5,1,8,0.00
2013-10-13,68.0,56.9,50.2,57.9,53.7,49.9,99,90,69,30.28,30.25,8,2,10,0.00
2013-10-14,74.1,56.9,41.4,59.4,51.5,41.1,99,84,53,30.24,30.13,6,2,6,0.00
2013-10-16,60.8,55.2,50.2,58.5,54.7,49.9,99,98,92,29.98,29.81,2,1,4,0.00
2013-10-17,66.2,63.4,62.2,65.9,63.2,62.0,99,99,99,29.63,29.61,7,2,8,0.00
2013-10-18,66.9,59.0,55.2,51.9,49.3,46.5,78,70,58,30.02,29.92,4,2,5,0.00
2013-10-19,71.6,58.6,43.2,53.4,49.8,42.9,99,75,44,30.07,29.86,11,2,13,0.00
2013-10-20,62.1,53.0,47.3,50.6,42.9,4.3,99,71,10,30.12,29.92,8,2,9,0.04
2013-10-21,56.3,55.8,55.2,46.0,45.6,45.3,71,69,67,29.93,29.92,2,1,2,0.00
2013-10-25,41.0,39.1,37.8,33.3,32.9,32.4,82,78,73,30.22,30.20,0,0,0,0.00
2013-10-26,50.5,42.7,35.2,39.3,37.4,35.0,99,82,61,30.20,30.15,0,0,0,0.00
2013-11-27,42.3,41.2,40.3,40.7,33.9,30.7,94,76,67,29.66,29.45,0,0,0,0.00
2013-11-28,42.4,31.6,23.0,32.7,15.0,4.5,75,51,29,30.49,29.65,36,4,36,0.00
2013-11-29,38.5,29.0,23.7,20.0,15.5,9.7,80,58,37,30.75,30.48,13,3,16,0.00
2013-11-30,45.1,29.9,17.4,18.8,10.1,0.2,80,46,17,30.81,30.42,8,2,8,0.00
2013-12-1,43.3,35.1,29.8,34.4,27.9,17.7,85,75,60,30.42,30.06,5,2,5,0.00
2013-12-2,43.3,38.2,32.5,38.4,36.3,32.3,99,93,80,30.03,29.93,4,2,6,0.00
2013-12-3,53.8,40.1,30.2,42.1,35.2,30.0,99,84,58,30.01,29.89,8,3,9,0.00
2013-12-4,59.9,42.5,28.6,35.1,32.6,28.3,99,72,36,30.20,30.11,9,2,10,0.00
2013-12-5,51.8,41.9,36.7,51.5,41.6,36.4,99,99,96,30.16,29.98,6,2,9,0.02
2013-12-6,36.3,36.3,36.3,36.1,36.1,36.1,99,99,99,30.15,30.15,2,2,3,0.00
2013-12-7,38.3,37.5,33.8,31.9,28.3,26.1,85,69,66,30.32,30.23,21,9,22,0.09
2013-12-8,36.1,30.2,25.0,24.0,19.7,17.4,81,65,58,30.63,30.47,6,2,7,0.00
2013-12-9,34.2,32.9,27.9,33.9,32.7,27.6,99,99,99,30.25,29.95,7,2,10,0.01
2013-12-10,34.5,31.5,25.3,34.3,31.1,24.1,99,98,95,30.03,29.86,0,0,0,0.00
2013-12-11,24.8,22.4,21.7,19.8,19.0,18.5,89,87,81,30.22,30.19,0,0,0,0.01
2013-12-12,28.0,18.8,13.6,-4.7,-9.9,-13.7,35,27,16,30.34,30.17,0,0,0,0.01
2013-12-13,19.4,18.2,17.2,-7.5,-7.6,-7.9,32,30,29,30.10,30.09,8,6,17,0.00
2013-12-14,20.8,15.8,15.1,17.6,12.6,11.4,89,87,83,29.96,29.91,10,4,10,0.00
2013-12-15,34.3,30.3,26.8,33.9,29.9,26.5,99,98,92,28.94,28.91,8,4,10,0.00
2013-12-16,27.0,24.4,22.6,16.6,11.4,6.0,71,57,48,29.42,29.33,12,6,12,0.00
2013-12-17,17.2,13.4,9.0,16.3,11.5,6.2,97,92,85,29.64,29.41,10,5,12,0.00
2013-12-18,31.6,27.0,19.8,22.7,21.0,18.0,94,78,65,29.52,29.37,10,4,11,0.01
2013-12-19,32.4,27.4,25.3,25.1,20.9,19.5,79,76,68,29.52,29.50,10,4,11,0.01
2013-12-21,53.8,47.6,43.0,47.4,44.1,41.1,93,88,79,29.40,29.37,8,5,11,0.00
2013-12-22,62.8,59.5,57.0,60.7,56.8,54.9,97,91,86,29.37,29.23,18,5,18,0.00
2013-12-23,57.9,47.9,37.6,57.7,46.7,31.0,99,96,77,29.55,29.32,17,5,17,0.53
2013-12-24,39.7,33.6,27.3,24.8,19.3,16.1,67,56,41,29.59,29.47,14,6,15,0.00
2013-12-26,38.3,30.3,26.1,32.8,25.0,20.5,89,80,70,29.65,29.53,10,4,14,0.00
2013-12-27,43.5,32.9,25.2,23.0,20.9,17.4,80,62,35,29.73,29.63,10,4,14,0.00
2013-12-28,43.7,39.1,31.3,28.1,26.0,23.1,81,59,44,29.58,29.48,17,5,19,0.00
2013-12-29,42.6,39.8,36.5,40.9,38.3,34.1,99,95,72,29.34,28.85,14,5,17,0.67
2013-12-30,41.2,30.1,17.8,39.1,20.3,5.3,99,68,50,29.60,29.23,19,7,22,0.00
2013-12-31,30.6,22.3,13.5,22.4,12.7,7.7,89,67,52,29.55,29.45,10,3,11,0.00
2014-1-1,34.7,27.4,17.4,20.7,12.0,4.8,84,54,30,29.79,29.73,18,4,18,0.00
2014-1-2,24.8,16.1,9.7,23.3,14.6,8.4,96,94,87,29.61,29.20,17,7,17,0.00